sensor_id;sensor_type;location;lat;lon;timestamp;P1;durP1;ratioP1;P2;durP2;ratioP2
70148;SDS011;57514;52.164;5.282;2023-11-22T00:02:17;17.17;;;8.00;;
70148;SDS011;57514;52.164;5.282;2023-11-22T00:04:45;16.35;;;7.80;;
70148;SDS011;57514;52.164;5.282;2023-11-22T00:07:12;15.18;;;6.60;;
70148;SDS011;57514;52.164;5.282;2023-11-22T00:09:39;16.02;;;6.68;;
70148;SDS011;57514;52.164;5.282;2023-11-22T00:12:08;17.88;;;6.90;;
70148;SDS011;57514;52.164;5.282;2023-11-22T00:14:36;13.98;;;5.75;;
70148;SDS011;57514;52.164;5.282;2023-11-22T00:17:03;14.52;;;5.97;;
70148;SDS011;57514;52.164;5.282;2023-11-22T00:19:31;14.05;;;6.00;;
70148;SDS011;57514;52.164;5.282;2023-11-22T00:21:59;15.88;;;5.55;;
70148;SDS011;57514;52.164;5.282;2023-11-22T00:24:26;15.32;;;5.85;;
70148;SDS011;57514;52.164;5.282;2023-11-22T00:26:53;15.05;;;6.60;;
70148;SDS011;57514;52.164;5.282;2023-11-22T00:29:20;14.57;;;6.07;;
70148;SDS011;57514;52.164;5.282;2023-11-22T00:31:48;20.48;;;6.63;;
70148;SDS011;57514;52.164;5.282;2023-11-22T00:34:15;16.58;;;6.28;;
70148;SDS011;57514;52.164;5.282;2023-11-22T00:36:46;13.63;;;5.47;;
70148;SDS011;57514;52.164;5.282;2023-11-22T00:39:15;14.98;;;5.53;;
70148;SDS011;57514;52.164;5.282;2023-11-22T00:41:43;13.82;;;5.88;;
70148;SDS011;57514;52.164;5.282;2023-11-22T00:44:10;13.70;;;5.25;;
70148;SDS011;57514;52.164;5.282;2023-11-22T00:46:38;17.00;;;6.03;;
70148;SDS011;57514;52.164;5.282;2023-11-22T00:49:06;15.95;;;6.45;;
70148;SDS011;57514;52.164;5.282;2023-11-22T00:51:34;13.73;;;5.75;;
70148;SDS011;57514;52.164;5.282;2023-11-22T00:54:01;16.40;;;6.53;;
70148;SDS011;57514;52.164;5.282;2023-11-22T00:56:29;14.35;;;6.18;;
70148;SDS011;57514;52.164;5.282;2023-11-22T00:58:56;15.48;;;6.38;;
70148;SDS011;57514;52.164;5.282;2023-11-22T01:01:26;16.92;;;6.10;;
70148;SDS011;57514;52.164;5.282;2023-11-22T01:03:53;16.42;;;6.35;;
70148;SDS011;57514;52.164;5.282;2023-11-22T01:06:21;18.25;;;6.15;;
70148;SDS011;57514;52.164;5.282;2023-11-22T01:08:49;15.35;;;6.05;;
70148;SDS011;57514;52.164;5.282;2023-11-22T01:11:17;16.73;;;6.70;;
70148;SDS011;57514;52.164;5.282;2023-11-22T01:13:44;14.27;;;6.00;;
70148;SDS011;57514;52.164;5.282;2023-11-22T01:16:12;16.98;;;6.80;;
70148;SDS011;57514;52.164;5.282;2023-11-22T01:18:40;15.50;;;6.00;;
70148;SDS011;57514;52.164;5.282;2023-11-22T01:21:11;15.00;;;5.30;;
70148;SDS011;57514;52.164;5.282;2023-11-22T01:23:39;14.15;;;5.70;;
70148;SDS011;57514;52.164;5.282;2023-11-22T01:26:06;14.98;;;6.15;;
70148;SDS011;57514;52.164;5.282;2023-11-22T01:28:34;15.05;;;6.15;;
70148;SDS011;57514;52.164;5.282;2023-11-22T01:31:01;13.82;;;5.88;;
70148;SDS011;57514;52.164;5.282;2023-11-22T01:33:30;14.30;;;6.05;;
70148;SDS011;57514;52.164;5.282;2023-11-22T01:35:58;14.48;;;5.75;;
70148;SDS011;57514;52.164;5.282;2023-11-22T01:38:26;15.77;;;5.90;;
70148;SDS011;57514;52.164;5.282;2023-11-22T01:40:53;13.80;;;5.43;;
70148;SDS011;57514;52.164;5.282;2023-11-22T01:43:20;14.70;;;6.07;;
70148;SDS011;57514;52.164;5.282;2023-11-22T01:45:50;14.90;;;5.18;;
70148;SDS011;57514;52.164;5.282;2023-11-22T01:48:18;13.02;;;5.43;;
70148;SDS011;57514;52.164;5.282;2023-11-22T01:50:45;17.73;;;6.20;;
70148;SDS011;57514;52.164;5.282;2023-11-22T01:53:13;13.68;;;5.53;;
70148;SDS011;57514;52.164;5.282;2023-11-22T01:55:42;18.17;;;5.85;;
70148;SDS011;57514;52.164;5.282;2023-11-22T01:58:10;14.35;;;6.05;;
70148;SDS011;57514;52.164;5.282;2023-11-22T02:00:43;13.27;;;5.20;;
70148;SDS011;57514;52.164;5.282;2023-11-22T02:03:11;13.35;;;5.25;;
70148;SDS011;57514;52.164;5.282;2023-11-22T02:05:40;12.27;;;5.30;;
70148;SDS011;57514;52.164;5.282;2023-11-22T02:08:09;15.57;;;5.53;;
70148;SDS011;57514;52.164;5.282;2023-11-22T02:10:36;12.77;;;5.25;;
70148;SDS011;57514;52.164;5.282;2023-11-22T02:13:04;15.23;;;6.15;;
70148;SDS011;57514;52.164;5.282;2023-11-22T02:15:34;15.38;;;5.20;;
70148;SDS011;57514;52.164;5.282;2023-11-22T02:18:01;13.82;;;5.05;;
70148;SDS011;57514;52.164;5.282;2023-11-22T02:23:09;14.98;;;5.03;;
70148;SDS011;57514;52.164;5.282;2023-11-22T02:25:38;13.80;;;5.57;;
70148;SDS011;57514;52.164;5.282;2023-11-22T02:28:06;13.18;;;5.70;;
70148;SDS011;57514;52.164;5.282;2023-11-22T02:30:35;15.25;;;5.40;;
70148;SDS011;57514;52.164;5.282;2023-11-22T02:33:03;13.90;;;5.20;;
70148;SDS011;57514;52.164;5.282;2023-11-22T02:35:33;15.02;;;5.85;;
70148;SDS011;57514;52.164;5.282;2023-11-22T02:38:02;14.23;;;5.85;;
70148;SDS011;57514;52.164;5.282;2023-11-22T02:40:29;14.00;;;5.53;;
70148;SDS011;57514;52.164;5.282;2023-11-22T02:42:57;13.50;;;5.85;;
70148;SDS011;57514;52.164;5.282;2023-11-22T02:45:25;15.52;;;5.80;;
70148;SDS011;57514;52.164;5.282;2023-11-22T02:47:53;15.48;;;6.07;;
70148;SDS011;57514;52.164;5.282;2023-11-22T02:50:20;12.82;;;5.45;;
70148;SDS011;57514;52.164;5.282;2023-11-22T02:52:48;14.88;;;5.85;;
70148;SDS011;57514;52.164;5.282;2023-11-22T02:55:15;13.98;;;5.00;;
70148;SDS011;57514;52.164;5.282;2023-11-22T02:57:42;14.18;;;5.05;;
70148;SDS011;57514;52.164;5.282;2023-11-22T03:00:10;14.70;;;6.07;;
70148;SDS011;57514;52.164;5.282;2023-11-22T03:02:40;13.75;;;4.93;;
70148;SDS011;57514;52.164;5.282;2023-11-22T03:05:08;12.15;;;5.00;;
70148;SDS011;57514;52.164;5.282;2023-11-22T03:07:36;12.05;;;5.03;;
70148;SDS011;57514;52.164;5.282;2023-11-22T03:10:03;16.77;;;6.07;;
70148;SDS011;57514;52.164;5.282;2023-11-22T03:12:31;12.65;;;5.40;;
70148;SDS011;57514;52.164;5.282;2023-11-22T03:14:59;13.13;;;5.00;;
70148;SDS011;57514;52.164;5.282;2023-11-22T03:17:28;18.05;;;6.10;;
70148;SDS011;57514;52.164;5.282;2023-11-22T03:19:56;13.45;;;5.38;;
70148;SDS011;57514;52.164;5.282;2023-11-22T03:22:24;16.35;;;5.07;;
70148;SDS011;57514;52.164;5.282;2023-11-22T03:24:52;12.93;;;4.55;;
70148;SDS011;57514;52.164;5.282;2023-11-22T03:27:20;12.63;;;5.10;;
70148;SDS011;57514;52.164;5.282;2023-11-22T03:29:48;15.25;;;5.97;;
70148;SDS011;57514;52.164;5.282;2023-11-22T03:32:16;14.65;;;5.60;;
70148;SDS011;57514;52.164;5.282;2023-11-22T03:34:44;14.00;;;5.35;;
70148;SDS011;57514;52.164;5.282;2023-11-22T03:37:11;12.90;;;5.18;;
70148;SDS011;57514;52.164;5.282;2023-11-22T03:39:39;12.13;;;4.80;;
70148;SDS011;57514;52.164;5.282;2023-11-22T03:42:08;15.43;;;5.60;;
70148;SDS011;57514;52.164;5.282;2023-11-22T03:44:35;13.43;;;5.07;;
70148;SDS011;57514;52.164;5.282;2023-11-22T03:47:03;13.90;;;4.93;;
70148;SDS011;57514;52.164;5.282;2023-11-22T03:49:30;13.32;;;5.20;;
70148;SDS011;57514;52.164;5.282;2023-11-22T03:51:58;14.32;;;4.90;;
70148;SDS011;57514;52.164;5.282;2023-11-22T03:54:25;13.00;;;5.20;;
70148;SDS011;57514;52.164;5.282;2023-11-22T03:56:53;13.85;;;5.68;;
70148;SDS011;57514;52.164;5.282;2023-11-22T03:59:20;14.82;;;5.60;;
70148;SDS011;57514;52.164;5.282;2023-11-22T04:01:47;13.63;;;5.32;;
70148;SDS011;57514;52.164;5.282;2023-11-22T04:04:15;12.15;;;5.18;;
70148;SDS011;57514;52.164;5.282;2023-11-22T04:06:42;13.65;;;5.10;;
70148;SDS011;57514;52.164;5.282;2023-11-22T04:09:09;16.20;;;5.10;;
70148;SDS011;57514;52.164;5.282;2023-11-22T04:11:38;17.40;;;5.65;;
70148;SDS011;57514;52.164;5.282;2023-11-22T04:14:06;16.92;;;5.30;;
70148;SDS011;57514;52.164;5.282;2023-11-22T04:16:34;14.25;;;4.93;;
70148;SDS011;57514;52.164;5.282;2023-11-22T04:19:02;15.18;;;5.78;;
70148;SDS011;57514;52.164;5.282;2023-11-22T04:21:30;12.90;;;4.97;;
70148;SDS011;57514;52.164;5.282;2023-11-22T04:23:57;14.35;;;5.93;;
70148;SDS011;57514;52.164;5.282;2023-11-22T04:26:25;14.20;;;5.50;;
70148;SDS011;57514;52.164;5.282;2023-11-22T04:28:53;14.95;;;5.85;;
70148;SDS011;57514;52.164;5.282;2023-11-22T04:31:20;13.85;;;5.47;;
70148;SDS011;57514;52.164;5.282;2023-11-22T04:33:48;13.43;;;5.28;;
70148;SDS011;57514;52.164;5.282;2023-11-22T04:36:16;12.88;;;5.00;;
70148;SDS011;57514;52.164;5.282;2023-11-22T04:38:43;15.95;;;5.57;;
70148;SDS011;57514;52.164;5.282;2023-11-22T04:41:10;16.40;;;5.88;;
70148;SDS011;57514;52.164;5.282;2023-11-22T04:43:39;14.25;;;5.57;;
70148;SDS011;57514;52.164;5.282;2023-11-22T04:46:06;14.30;;;5.47;;
70148;SDS011;57514;52.164;5.282;2023-11-22T04:48:34;13.55;;;5.60;;
70148;SDS011;57514;52.164;5.282;2023-11-22T04:51:03;12.90;;;5.05;;
70148;SDS011;57514;52.164;5.282;2023-11-22T04:53:31;14.20;;;4.63;;
70148;SDS011;57514;52.164;5.282;2023-11-22T04:55:59;19.08;;;5.10;;
70148;SDS011;57514;52.164;5.282;2023-11-22T04:58:28;13.90;;;4.63;;
70148;SDS011;57514;52.164;5.282;2023-11-22T05:00:56;15.50;;;5.80;;
70148;SDS011;57514;52.164;5.282;2023-11-22T05:03:23;18.20;;;5.65;;
70148;SDS011;57514;52.164;5.282;2023-11-22T05:05:51;15.23;;;5.32;;
70148;SDS011;57514;52.164;5.282;2023-11-22T05:08:18;13.00;;;4.85;;
70148;SDS011;57514;52.164;5.282;2023-11-22T05:10:45;12.80;;;5.00;;
70148;SDS011;57514;52.164;5.282;2023-11-22T05:13:13;12.80;;;5.43;;
70148;SDS011;57514;52.164;5.282;2023-11-22T05:15:40;12.90;;;5.15;;
70148;SDS011;57514;52.164;5.282;2023-11-22T05:18:07;12.25;;;4.88;;
70148;SDS011;57514;52.164;5.282;2023-11-22T05:20:34;15.88;;;5.03;;
70148;SDS011;57514;52.164;5.282;2023-11-22T05:23:02;16.13;;;5.32;;
70148;SDS011;57514;52.164;5.282;2023-11-22T05:25:30;14.10;;;5.00;;
70148;SDS011;57514;52.164;5.282;2023-11-22T05:27:58;13.30;;;5.28;;
70148;SDS011;57514;52.164;5.282;2023-11-22T05:30:25;16.55;;;5.55;;
70148;SDS011;57514;52.164;5.282;2023-11-22T05:32:53;13.55;;;5.32;;
70148;SDS011;57514;52.164;5.282;2023-11-22T05:35:20;14.43;;;5.38;;
70148;SDS011;57514;52.164;5.282;2023-11-22T05:37:47;15.20;;;5.55;;
70148;SDS011;57514;52.164;5.282;2023-11-22T05:40:15;16.88;;;5.13;;
70148;SDS011;57514;52.164;5.282;2023-11-22T05:42:42;15.18;;;5.07;;
70148;SDS011;57514;52.164;5.282;2023-11-22T05:45:10;15.02;;;5.85;;
70148;SDS011;57514;52.164;5.282;2023-11-22T05:47:37;13.85;;;5.22;;
70148;SDS011;57514;52.164;5.282;2023-11-22T05:50:05;16.50;;;5.40;;
70148;SDS011;57514;52.164;5.282;2023-11-22T05:52:32;15.38;;;5.07;;
70148;SDS011;57514;52.164;5.282;2023-11-22T05:55:00;14.38;;;5.07;;
70148;SDS011;57514;52.164;5.282;2023-11-22T05:57:30;11.77;;;4.82;;
70148;SDS011;57514;52.164;5.282;2023-11-22T05:59:57;14.38;;;5.20;;
70148;SDS011;57514;52.164;5.282;2023-11-22T06:02:25;16.83;;;5.72;;
70148;SDS011;57514;52.164;5.282;2023-11-22T06:04:52;14.63;;;5.82;;
70148;SDS011;57514;52.164;5.282;2023-11-22T06:07:19;19.33;;;5.70;;
70148;SDS011;57514;52.164;5.282;2023-11-22T06:09:46;13.93;;;4.95;;
70148;SDS011;57514;52.164;5.282;2023-11-22T06:12:13;15.38;;;5.32;;
70148;SDS011;57514;52.164;5.282;2023-11-22T06:14:41;12.77;;;5.45;;
70148;SDS011;57514;52.164;5.282;2023-11-22T06:17:08;16.27;;;6.80;;
70148;SDS011;57514;52.164;5.282;2023-11-22T06:19:35;16.20;;;6.60;;
70148;SDS011;57514;52.164;5.282;2023-11-22T06:22:03;19.92;;;7.88;;
70148;SDS011;57514;52.164;5.282;2023-11-22T06:24:30;17.60;;;7.78;;
70148;SDS011;57514;52.164;5.282;2023-11-22T06:26:59;20.88;;;8.25;;
70148;SDS011;57514;52.164;5.282;2023-11-22T06:29:26;16.88;;;7.50;;
70148;SDS011;57514;52.164;5.282;2023-11-22T06:31:54;17.73;;;6.70;;
70148;SDS011;57514;52.164;5.282;2023-11-22T06:34:21;17.40;;;6.55;;
70148;SDS011;57514;52.164;5.282;2023-11-22T06:36:48;21.15;;;9.30;;
70148;SDS011;57514;52.164;5.282;2023-11-22T06:39:15;16.58;;;6.22;;
70148;SDS011;57514;52.164;5.282;2023-11-22T06:41:43;14.65;;;6.30;;
70148;SDS011;57514;52.164;5.282;2023-11-22T06:44:11;15.57;;;5.72;;
70148;SDS011;57514;52.164;5.282;2023-11-22T06:46:38;14.30;;;6.05;;
70148;SDS011;57514;52.164;5.282;2023-11-22T06:49:05;16.52;;;5.45;;
70148;SDS011;57514;52.164;5.282;2023-11-22T06:51:33;14.45;;;5.65;;
70148;SDS011;57514;52.164;5.282;2023-11-22T06:54:00;17.50;;;5.05;;
70148;SDS011;57514;52.164;5.282;2023-11-22T06:56:27;15.25;;;5.40;;
70148;SDS011;57514;52.164;5.282;2023-11-22T06:58:55;14.77;;;5.65;;
70148;SDS011;57514;52.164;5.282;2023-11-22T07:01:23;12.30;;;5.15;;
70148;SDS011;57514;52.164;5.282;2023-11-22T07:03:54;13.25;;;5.43;;
70148;SDS011;57514;52.164;5.282;2023-11-22T07:06:22;14.23;;;5.53;;
70148;SDS011;57514;52.164;5.282;2023-11-22T07:08:49;15.65;;;6.35;;
70148;SDS011;57514;52.164;5.282;2023-11-22T07:11:23;17.00;;;6.57;;
70148;SDS011;57514;52.164;5.282;2023-11-22T07:13:50;13.73;;;5.68;;
70148;SDS011;57514;52.164;5.282;2023-11-22T07:16:18;17.45;;;6.30;;
70148;SDS011;57514;52.164;5.282;2023-11-22T07:18:47;13.30;;;6.30;;
70148;SDS011;57514;52.164;5.282;2023-11-22T07:21:14;13.75;;;5.47;;
70148;SDS011;57514;52.164;5.282;2023-11-22T07:23:41;16.15;;;5.88;;
70148;SDS011;57514;52.164;5.282;2023-11-22T07:26:09;13.35;;;6.07;;
70148;SDS011;57514;52.164;5.282;2023-11-22T07:28:36;17.38;;;6.45;;
70148;SDS011;57514;52.164;5.282;2023-11-22T07:31:03;13.85;;;5.50;;
70148;SDS011;57514;52.164;5.282;2023-11-22T07:33:33;15.48;;;6.25;;
70148;SDS011;57514;52.164;5.282;2023-11-22T07:36:01;17.25;;;5.95;;
70148;SDS011;57514;52.164;5.282;2023-11-22T07:38:29;14.80;;;5.97;;
70148;SDS011;57514;52.164;5.282;2023-11-22T07:40:59;14.10;;;5.80;;
70148;SDS011;57514;52.164;5.282;2023-11-22T07:43:26;16.08;;;7.07;;
70148;SDS011;57514;52.164;5.282;2023-11-22T07:45:54;14.10;;;6.18;;
70148;SDS011;57514;52.164;5.282;2023-11-22T07:48:21;16.10;;;6.15;;
70148;SDS011;57514;52.164;5.282;2023-11-22T07:50:49;13.25;;;5.70;;
70148;SDS011;57514;52.164;5.282;2023-11-22T07:53:16;16.60;;;5.75;;
70148;SDS011;57514;52.164;5.282;2023-11-22T07:55:44;15.15;;;6.03;;
70148;SDS011;57514;52.164;5.282;2023-11-22T07:58:13;14.40;;;5.43;;
70148;SDS011;57514;52.164;5.282;2023-11-22T08:00:42;14.63;;;5.22;;
70148;SDS011;57514;52.164;5.282;2023-11-22T08:03:09;14.60;;;5.38;;
70148;SDS011;57514;52.164;5.282;2023-11-22T08:05:37;13.68;;;5.88;;
70148;SDS011;57514;52.164;5.282;2023-11-22T08:08:06;14.00;;;5.68;;
70148;SDS011;57514;52.164;5.282;2023-11-22T08:10:35;13.32;;;5.50;;
70148;SDS011;57514;52.164;5.282;2023-11-22T08:13:02;13.70;;;5.50;;
70148;SDS011;57514;52.164;5.282;2023-11-22T08:15:30;14.18;;;5.35;;
70148;SDS011;57514;52.164;5.282;2023-11-22T08:17:58;13.18;;;5.57;;
70148;SDS011;57514;52.164;5.282;2023-11-22T08:20:27;15.00;;;6.25;;
70148;SDS011;57514;52.164;5.282;2023-11-22T08:22:54;13.48;;;5.80;;
70148;SDS011;57514;52.164;5.282;2023-11-22T08:25:21;19.38;;;5.95;;
70148;SDS011;57514;52.164;5.282;2023-11-22T08:27:49;15.52;;;5.50;;
70148;SDS011;57514;52.164;5.282;2023-11-22T08:30:16;12.93;;;5.38;;
70148;SDS011;57514;52.164;5.282;2023-11-22T08:32:45;13.48;;;5.75;;
70148;SDS011;57514;52.164;5.282;2023-11-22T08:35:17;12.13;;;4.65;;
70148;SDS011;57514;52.164;5.282;2023-11-22T08:37:45;14.07;;;4.80;;
70148;SDS011;57514;52.164;5.282;2023-11-22T08:40:13;11.52;;;4.90;;
70148;SDS011;57514;52.164;5.282;2023-11-22T08:42:41;12.25;;;5.20;;
70148;SDS011;57514;52.164;5.282;2023-11-22T08:45:08;12.45;;;5.38;;
70148;SDS011;57514;52.164;5.282;2023-11-22T08:47:41;14.70;;;5.05;;
70148;SDS011;57514;52.164;5.282;2023-11-22T08:50:08;11.45;;;4.80;;
70148;SDS011;57514;52.164;5.282;2023-11-22T08:52:39;14.15;;;5.50;;
70148;SDS011;57514;52.164;5.282;2023-11-22T08:55:08;12.77;;;5.57;;
70148;SDS011;57514;52.164;5.282;2023-11-22T08:57:39;15.85;;;6.13;;
70148;SDS011;57514;52.164;5.282;2023-11-22T09:00:07;16.20;;;6.70;;
70148;SDS011;57514;52.164;5.282;2023-11-22T09:02:40;17.85;;;6.15;;
70148;SDS011;57514;52.164;5.282;2023-11-22T09:05:08;15.00;;;6.10;;
70148;SDS011;57514;52.164;5.282;2023-11-22T09:07:36;15.35;;;6.10;;
70148;SDS011;57514;52.164;5.282;2023-11-22T09:10:05;16.23;;;6.85;;
70148;SDS011;57514;52.164;5.282;2023-11-22T09:12:37;13.68;;;6.00;;
70148;SDS011;57514;52.164;5.282;2023-11-22T09:15:09;14.73;;;6.25;;
70148;SDS011;57514;52.164;5.282;2023-11-22T09:17:39;14.98;;;6.50;;
70148;SDS011;57514;52.164;5.282;2023-11-22T09:20:10;14.25;;;5.70;;
70148;SDS011;57514;52.164;5.282;2023-11-22T09:22:44;15.13;;;6.65;;
70148;SDS011;57514;52.164;5.282;2023-11-22T09:25:18;15.65;;;6.63;;
70148;SDS011;57514;52.164;5.282;2023-11-22T09:27:46;15.48;;;6.15;;
70148;SDS011;57514;52.164;5.282;2023-11-22T09:30:23;16.83;;;7.03;;
70148;SDS011;57514;52.164;5.282;2023-11-22T09:33:02;16.70;;;7.40;;
70148;SDS011;57514;52.164;5.282;2023-11-22T09:35:30;15.20;;;6.90;;
70148;SDS011;57514;52.164;5.282;2023-11-22T09:37:58;18.10;;;8.02;;
70148;SDS011;57514;52.164;5.282;2023-11-22T09:40:26;16.63;;;7.25;;
70148;SDS011;57514;52.164;5.282;2023-11-22T09:42:55;14.35;;;6.82;;
70148;SDS011;57514;52.164;5.282;2023-11-22T09:45:24;16.23;;;7.35;;
70148;SDS011;57514;52.164;5.282;2023-11-22T09:47:55;16.33;;;8.30;;
70148;SDS011;57514;52.164;5.282;2023-11-22T09:50:33;16.90;;;7.93;;
70148;SDS011;57514;52.164;5.282;2023-11-22T09:53:02;16.00;;;7.13;;
70148;SDS011;57514;52.164;5.282;2023-11-22T09:55:32;17.90;;;7.88;;
70148;SDS011;57514;52.164;5.282;2023-11-22T09:58:00;18.88;;;9.93;;
70148;SDS011;57514;52.164;5.282;2023-11-22T10:00:28;17.90;;;8.70;;
70148;SDS011;57514;52.164;5.282;2023-11-22T10:02:58;18.98;;;8.45;;
70148;SDS011;57514;52.164;5.282;2023-11-22T10:05:26;17.25;;;7.97;;
70148;SDS011;57514;52.164;5.282;2023-11-22T10:07:55;18.98;;;9.10;;
70148;SDS011;57514;52.164;5.282;2023-11-22T10:10:22;20.27;;;8.82;;
70148;SDS011;57514;52.164;5.282;2023-11-22T10:12:53;17.65;;;7.40;;
70148;SDS011;57514;52.164;5.282;2023-11-22T10:15:22;18.58;;;8.00;;
70148;SDS011;57514;52.164;5.282;2023-11-22T10:20:44;15.95;;;7.30;;
70148;SDS011;57514;52.164;5.282;2023-11-22T10:23:16;16.52;;;7.38;;
70148;SDS011;57514;52.164;5.282;2023-11-22T10:25:47;19.08;;;9.15;;
70148;SDS011;57514;52.164;5.282;2023-11-22T10:28:18;19.65;;;8.73;;
70148;SDS011;57514;52.164;5.282;2023-11-22T10:30:46;16.48;;;7.63;;
70148;SDS011;57514;52.164;5.282;2023-11-22T10:33:14;17.90;;;8.10;;
70148;SDS011;57514;52.164;5.282;2023-11-22T10:35:45;15.27;;;7.72;;
70148;SDS011;57514;52.164;5.282;2023-11-22T10:38:15;21.15;;;9.10;;
70148;SDS011;57514;52.164;5.282;2023-11-22T10:40:43;15.70;;;8.20;;
70148;SDS011;57514;52.164;5.282;2023-11-22T10:43:12;17.52;;;8.00;;
70148;SDS011;57514;52.164;5.282;2023-11-22T10:45:40;15.98;;;7.05;;
70148;SDS011;57514;52.164;5.282;2023-11-22T10:48:15;16.20;;;7.63;;
70148;SDS011;57514;52.164;5.282;2023-11-22T10:50:46;16.58;;;7.47;;
70148;SDS011;57514;52.164;5.282;2023-11-22T10:53:16;14.48;;;7.20;;
70148;SDS011;57514;52.164;5.282;2023-11-22T10:55:47;14.13;;;7.25;;
70148;SDS011;57514;52.164;5.282;2023-11-22T10:58:15;16.98;;;7.43;;
70148;SDS011;57514;52.164;5.282;2023-11-22T11:00:43;15.25;;;6.82;;
70148;SDS011;57514;52.164;5.282;2023-11-22T11:03:20;15.43;;;7.22;;
70148;SDS011;57514;52.164;5.282;2023-11-22T11:05:50;17.13;;;8.48;;
70148;SDS011;57514;52.164;5.282;2023-11-22T11:08:19;17.10;;;8.65;;
70148;SDS011;57514;52.164;5.282;2023-11-22T11:10:47;17.27;;;8.57;;
70148;SDS011;57514;52.164;5.282;2023-11-22T11:13:16;15.23;;;7.60;;
70148;SDS011;57514;52.164;5.282;2023-11-22T11:15:44;14.90;;;7.15;;
70148;SDS011;57514;52.164;5.282;2023-11-22T11:18:14;16.58;;;7.68;;
70148;SDS011;57514;52.164;5.282;2023-11-22T11:20:46;17.20;;;7.65;;
70148;SDS011;57514;52.164;5.282;2023-11-22T11:23:14;17.98;;;9.65;;
70148;SDS011;57514;52.164;5.282;2023-11-22T11:25:41;18.95;;;9.23;;
70148;SDS011;57514;52.164;5.282;2023-11-22T11:28:12;17.60;;;8.82;;
70148;SDS011;57514;52.164;5.282;2023-11-22T11:33:07;19.67;;;10.35;;
70148;SDS011;57514;52.164;5.282;2023-11-22T11:35:38;19.20;;;8.20;;
70148;SDS011;57514;52.164;5.282;2023-11-22T11:38:06;16.77;;;8.38;;
70148;SDS011;57514;52.164;5.282;2023-11-22T11:40:35;17.70;;;7.18;;
70148;SDS011;57514;52.164;5.282;2023-11-22T11:43:04;16.17;;;7.28;;
70148;SDS011;57514;52.164;5.282;2023-11-22T11:45:39;18.35;;;8.57;;
70148;SDS011;57514;52.164;5.282;2023-11-22T11:48:15;15.75;;;7.63;;
70148;SDS011;57514;52.164;5.282;2023-11-22T11:50:45;16.17;;;8.00;;
70148;SDS011;57514;52.164;5.282;2023-11-22T11:53:13;14.60;;;7.32;;
70148;SDS011;57514;52.164;5.282;2023-11-22T11:55:40;16.92;;;8.77;;
70148;SDS011;57514;52.164;5.282;2023-11-22T11:58:11;18.55;;;8.13;;
70148;SDS011;57514;52.164;5.282;2023-11-22T12:00:38;15.63;;;7.32;;
70148;SDS011;57514;52.164;5.282;2023-11-22T12:03:07;15.40;;;7.97;;
70148;SDS011;57514;52.164;5.282;2023-11-22T12:05:38;15.80;;;7.60;;
70148;SDS011;57514;52.164;5.282;2023-11-22T12:08:05;15.68;;;7.68;;
70148;SDS011;57514;52.164;5.282;2023-11-22T12:10:33;14.25;;;7.13;;
70148;SDS011;57514;52.164;5.282;2023-11-22T12:13:00;15.75;;;7.78;;
70148;SDS011;57514;52.164;5.282;2023-11-22T12:15:30;17.92;;;8.38;;
70148;SDS011;57514;52.164;5.282;2023-11-22T12:17:57;14.88;;;7.35;;
70148;SDS011;57514;52.164;5.282;2023-11-22T12:20:27;17.05;;;9.15;;
70148;SDS011;57514;52.164;5.282;2023-11-22T12:22:58;16.10;;;8.57;;
70148;SDS011;57514;52.164;5.282;2023-11-22T12:25:29;17.65;;;8.40;;
70148;SDS011;57514;52.164;5.282;2023-11-22T12:27:57;17.67;;;8.32;;
70148;SDS011;57514;52.164;5.282;2023-11-22T12:30:28;17.15;;;8.75;;
70148;SDS011;57514;52.164;5.282;2023-11-22T12:32:56;18.30;;;9.75;;
70148;SDS011;57514;52.164;5.282;2023-11-22T12:35:23;18.48;;;9.55;;
70148;SDS011;57514;52.164;5.282;2023-11-22T12:37:51;18.08;;;9.02;;
70148;SDS011;57514;52.164;5.282;2023-11-22T12:40:20;18.13;;;8.70;;
70148;SDS011;57514;52.164;5.282;2023-11-22T12:42:48;16.10;;;8.55;;
70148;SDS011;57514;52.164;5.282;2023-11-22T12:45:19;19.45;;;9.85;;
70148;SDS011;57514;52.164;5.282;2023-11-22T12:47:47;15.88;;;8.90;;
70148;SDS011;57514;52.164;5.282;2023-11-22T12:50:31;18.35;;;8.75;;
70148;SDS011;57514;52.164;5.282;2023-11-22T12:52:59;18.17;;;9.15;;
70148;SDS011;57514;52.164;5.282;2023-11-22T12:55:26;19.75;;;10.20;;
70148;SDS011;57514;52.164;5.282;2023-11-22T12:57:58;18.52;;;9.38;;
70148;SDS011;57514;52.164;5.282;2023-11-22T13:00:29;16.52;;;7.95;;
70148;SDS011;57514;52.164;5.282;2023-11-22T13:02:57;20.40;;;9.18;;
70148;SDS011;57514;52.164;5.282;2023-11-22T13:05:29;17.27;;;8.30;;
70148;SDS011;57514;52.164;5.282;2023-11-22T13:07:57;17.77;;;7.88;;
70148;SDS011;57514;52.164;5.282;2023-11-22T13:10:27;17.02;;;8.48;;
70148;SDS011;57514;52.164;5.282;2023-11-22T13:12:56;18.77;;;8.55;;
70148;SDS011;57514;52.164;5.282;2023-11-22T13:15:23;19.73;;;9.00;;
70148;SDS011;57514;52.164;5.282;2023-11-22T13:17:52;17.27;;;7.88;;
70148;SDS011;57514;52.164;5.282;2023-11-22T13:20:23;15.77;;;7.20;;
70148;SDS011;57514;52.164;5.282;2023-11-22T13:22:52;17.02;;;8.25;;
70148;SDS011;57514;52.164;5.282;2023-11-22T13:25:20;20.00;;;10.45;;
70148;SDS011;57514;52.164;5.282;2023-11-22T13:27:50;19.35;;;9.32;;
70148;SDS011;57514;52.164;5.282;2023-11-22T13:30:18;19.15;;;9.48;;
70148;SDS011;57514;52.164;5.282;2023-11-22T13:35:16;17.30;;;8.60;;
70148;SDS011;57514;52.164;5.282;2023-11-22T13:37:48;21.10;;;10.48;;
70148;SDS011;57514;52.164;5.282;2023-11-22T13:40:16;21.02;;;9.68;;
70148;SDS011;57514;52.164;5.282;2023-11-22T13:42:48;24.35;;;12.30;;
70148;SDS011;57514;52.164;5.282;2023-11-22T13:45:16;20.88;;;10.02;;
70148;SDS011;57514;52.164;5.282;2023-11-22T13:47:44;20.50;;;9.98;;
70148;SDS011;57514;52.164;5.282;2023-11-22T13:50:14;19.35;;;9.88;;
70148;SDS011;57514;52.164;5.282;2023-11-22T13:52:45;19.38;;;10.18;;
70148;SDS011;57514;52.164;5.282;2023-11-22T13:55:13;14.10;;;6.13;;
70148;SDS011;57514;52.164;5.282;2023-11-22T13:57:40;20.85;;;9.98;;
70148;SDS011;57514;52.164;5.282;2023-11-22T14:00:08;19.23;;;9.07;;
70148;SDS011;57514;52.164;5.282;2023-11-22T14:02:41;17.35;;;8.68;;
70148;SDS011;57514;52.164;5.282;2023-11-22T14:05:08;18.30;;;8.82;;
70148;SDS011;57514;52.164;5.282;2023-11-22T14:07:38;18.73;;;8.52;;
70148;SDS011;57514;52.164;5.282;2023-11-22T14:10:06;20.42;;;9.57;;
70148;SDS011;57514;52.164;5.282;2023-11-22T14:12:33;19.42;;;9.23;;
70148;SDS011;57514;52.164;5.282;2023-11-22T14:15:01;24.48;;;11.05;;
70148;SDS011;57514;52.164;5.282;2023-11-22T14:17:31;19.45;;;10.07;;
70148;SDS011;57514;52.164;5.282;2023-11-22T14:19:58;21.00;;;9.73;;
70148;SDS011;57514;52.164;5.282;2023-11-22T14:22:26;22.77;;;9.55;;
70148;SDS011;57514;52.164;5.282;2023-11-22T14:24:53;22.20;;;9.68;;
70148;SDS011;57514;52.164;5.282;2023-11-22T14:27:21;18.40;;;10.45;;
70148;SDS011;57514;52.164;5.282;2023-11-22T14:29:49;23.25;;;11.20;;
70148;SDS011;57514;52.164;5.282;2023-11-22T14:32:18;22.23;;;9.73;;
70148;SDS011;57514;52.164;5.282;2023-11-22T14:34:45;21.27;;;10.23;;
70148;SDS011;57514;52.164;5.282;2023-11-22T14:37:13;21.13;;;10.13;;
70148;SDS011;57514;52.164;5.282;2023-11-22T14:39:41;16.80;;;7.90;;
70148;SDS011;57514;52.164;5.282;2023-11-22T14:42:09;20.60;;;9.25;;
70148;SDS011;57514;52.164;5.282;2023-11-22T14:44:38;19.73;;;9.00;;
70148;SDS011;57514;52.164;5.282;2023-11-22T14:47:05;21.92;;;9.75;;
70148;SDS011;57514;52.164;5.282;2023-11-22T14:49:39;21.60;;;9.43;;
70148;SDS011;57514;52.164;5.282;2023-11-22T14:52:12;19.95;;;9.23;;